createdAt,value
2022-11-18T00:01:12.440Z,7.40
2022-11-18T00:03:40.558Z,7.40
2022-11-18T00:06:10.576Z,7.40
2022-11-18T00:08:37.528Z,7.40
2022-11-18T00:11:10.024Z,7.40
2022-11-18T00:13:57.535Z,7.40
2022-11-18T00:16:24.822Z,7.40
2022-11-18T00:18:52.147Z,7.50
2022-11-18T00:21:19.047Z,7.50
2022-11-18T00:23:48.432Z,7.40
2022-11-18T00:26:15.383Z,7.50
2022-11-18T00:28:42.951Z,7.50
2022-11-18T00:31:11.981Z,7.50
2022-11-18T00:33:39.368Z,7.50
2022-11-18T00:36:08.642Z,7.50
2022-11-18T00:38:35.805Z,7.50
2022-11-18T00:41:10.701Z,7.50
2022-11-18T00:43:38.026Z,7.50
2022-11-18T00:46:06.352Z,7.50
2022-11-18T00:48:33.646Z,7.50
2022-11-18T00:51:17.760Z,7.40
2022-11-18T00:53:45.404Z,7.40
2022-11-18T00:56:12.548Z,7.50
2022-11-18T00:58:39.481Z,7.40
2022-11-18T01:01:06.563Z,7.40
2022-11-18T01:03:33.534Z,7.40
2022-11-18T01:06:00.481Z,7.40
2022-11-18T01:08:27.494Z,7.50
2022-11-18T01:10:54.597Z,7.40
2022-11-18T01:13:23.949Z,7.40
2022-11-18T01:15:58.734Z,7.40
2022-11-18T01:18:29.967Z,7.40
2022-11-18T01:21:01.661Z,7.40
2022-11-18T01:23:28.596Z,7.40
2022-11-18T01:25:56.051Z,7.40
2022-11-18T01:28:24.060Z,7.40
2022-11-18T01:30:51.746Z,7.40
2022-11-18T01:33:18.687Z,7.40
2022-11-18T01:35:45.805Z,7.40
2022-11-18T01:38:14.450Z,7.40
2022-11-18T01:40:42.198Z,7.40
2022-11-18T01:43:20.513Z,7.40
2022-11-18T01:45:50.463Z,7.30
2022-11-18T01:48:36.055Z,7.30
2022-11-18T01:51:07.130Z,7.30
2022-11-18T01:53:38.584Z,7.40
2022-11-18T01:56:13.334Z,7.30
2022-11-18T01:58:46.795Z,7.40
2022-11-18T02:01:14.056Z,7.40
2022-11-18T02:03:42.363Z,7.50
2022-11-18T02:06:10.537Z,7.40
2022-11-18T02:08:39.447Z,7.50
2022-11-18T02:11:31.209Z,7.40
2022-11-18T02:13:59.582Z,7.50
2022-11-18T02:16:52.519Z,7.50
2022-11-18T02:19:40.730Z,7.40
2022-11-18T02:22:36.501Z,7.50
2022-11-18T02:25:24.571Z,7.40
2022-11-18T02:28:16.935Z,7.50
2022-11-18T02:30:47.255Z,7.40
2022-11-18T02:33:23.619Z,7.40
2022-11-18T02:36:02.037Z,7.40
2022-11-18T02:38:34.742Z,7.40
2022-11-18T02:41:08.910Z,7.40
2022-11-18T02:43:40.832Z,7.40
2022-11-18T02:46:10.991Z,7.40
2022-11-18T02:48:45.193Z,7.40
2022-11-18T02:51:14.298Z,7.50
2022-11-18T02:53:42.696Z,7.50
2022-11-18T02:56:10.417Z,7.50
2022-11-18T02:58:37.852Z,7.50
2022-11-18T03:01:04.999Z,7.50
2022-11-18T03:03:33.977Z,7.50
2022-11-18T03:06:11.395Z,7.50
2022-11-18T03:09:04.322Z,7.50
2022-11-18T03:12:00.449Z,7.50
2022-11-18T03:15:01.291Z,7.50
2022-11-18T03:17:49.516Z,7.40
2022-11-18T03:20:52.524Z,7.50
2022-11-18T03:23:51.384Z,7.50
2022-11-18T03:26:25.568Z,7.50
2022-11-18T03:29:10.510Z,7.50
2022-11-18T03:32:02.227Z,7.50
2022-11-18T03:34:34.435Z,7.50
2022-11-18T03:37:09.023Z,7.50
2022-11-18T03:39:40.784Z,7.50
2022-11-18T03:42:32.901Z,7.50
2022-11-18T03:45:07.185Z,7.50
2022-11-18T03:47:39.493Z,7.50
2022-11-18T03:50:18.556Z,7.50
2022-11-18T03:52:47.602Z,7.50
2022-11-18T03:55:22.690Z,7.50
2022-11-18T03:57:51.924Z,7.50
2022-11-18T04:00:20.415Z,7.40
2022-11-18T04:02:49.102Z,7.40
2022-11-18T04:05:18.311Z,7.40
2022-11-18T04:08:02.783Z,7.50
2022-11-18T04:10:38.998Z,7.40
2022-11-18T04:13:07.644Z,7.40
2022-11-18T04:15:38.596Z,7.40
2022-11-18T04:18:06.800Z,7.40
2022-11-18T04:20:34.310Z,7.40
2022-11-18T04:23:01.404Z,7.40
2022-11-18T04:25:28.367Z,7.40
2022-11-18T04:27:55.536Z,7.40
2022-11-18T04:30:22.633Z,7.40
2022-11-18T04:32:49.629Z,7.40
2022-11-18T04:35:16.670Z,7.50
2022-11-18T04:37:43.619Z,7.40
2022-11-18T04:40:11.067Z,7.50
2022-11-18T04:42:38.184Z,7.40
2022-11-18T04:45:05.889Z,7.40
2022-11-18T04:47:32.871Z,7.50
2022-11-18T04:49:59.855Z,7.50
2022-11-18T04:52:26.787Z,7.50
2022-11-18T04:54:53.811Z,7.50
2022-11-18T04:57:20.823Z,7.50
2022-11-18T04:59:47.713Z,7.50
2022-11-18T05:02:14.611Z,7.50
2022-11-18T05:04:42.400Z,7.50
2022-11-18T05:07:14.043Z,7.50
2022-11-18T05:09:41.008Z,7.60
2022-11-18T05:12:30.570Z,7.60
2022-11-18T05:14:57.654Z,7.60
2022-11-18T05:17:25.024Z,7.60
2022-11-18T05:19:52.159Z,7.60
2022-11-18T05:22:19.534Z,7.60
2022-11-18T05:24:46.882Z,7.60
2022-11-18T05:27:14.892Z,7.60
2022-11-18T05:29:42.004Z,7.60
2022-11-18T05:32:08.974Z,7.60
2022-11-18T05:34:35.978Z,7.60
2022-11-18T05:37:03.127Z,7.60
2022-11-18T05:39:30.107Z,7.60
2022-11-18T05:42:15.704Z,7.70
2022-11-18T05:44:42.622Z,7.70
2022-11-18T05:47:09.544Z,7.60
2022-11-18T05:49:36.504Z,7.70
2022-11-18T05:52:03.878Z,7.70
2022-11-18T05:54:31.726Z,7.60
2022-11-18T05:56:58.649Z,7.60
2022-11-18T05:59:25.681Z,7.70
2022-11-18T06:02:16.102Z,7.70
2022-11-18T06:05:04.778Z,7.70
2022-11-18T06:07:58.708Z,7.70
2022-11-18T06:10:29.966Z,7.70
2022-11-18T06:13:01.314Z,7.70
2022-11-18T06:15:34.108Z,7.70
2022-11-18T06:18:05.091Z,7.70
2022-11-18T06:20:35.424Z,7.70
2022-11-18T06:23:02.316Z,7.70
2022-11-18T06:25:29.972Z,7.70
2022-11-18T06:28:00.527Z,7.70
2022-11-18T06:30:27.883Z,7.70
2022-11-18T06:32:54.856Z,7.80
2022-11-18T06:35:21.799Z,7.80
2022-11-18T06:37:48.720Z,7.80
2022-11-18T06:40:15.906Z,7.80
2022-11-18T06:43:01.589Z,7.80
2022-11-18T06:45:28.618Z,7.90
2022-11-18T06:48:00.933Z,7.90
2022-11-18T06:50:29.100Z,7.90
2022-11-18T06:52:56.409Z,7.90
2022-11-18T06:55:23.633Z,7.90
2022-11-18T06:57:50.608Z,7.90
2022-11-18T07:00:18.143Z,8.00
2022-11-18T07:02:45.086Z,8.00
2022-11-18T07:05:12.082Z,8.00
2022-11-18T07:07:42.260Z,8.00
2022-11-18T07:10:10.027Z,8.00
2022-11-18T07:12:36.947Z,8.00
2022-11-18T07:15:04.157Z,8.00
2022-11-18T07:17:31.713Z,8.00
2022-11-18T07:19:58.629Z,8.10
2022-11-18T07:22:25.564Z,8.10
2022-11-18T07:24:52.490Z,8.10
2022-11-18T07:27:19.456Z,8.10
2022-11-18T07:29:46.460Z,8.10
2022-11-18T07:32:13.366Z,8.10
2022-11-18T07:34:40.380Z,8.10
2022-11-18T07:37:07.394Z,8.10
2022-11-18T07:39:34.428Z,8.10
2022-11-18T07:42:01.400Z,8.10
2022-11-18T07:44:28.369Z,8.10
2022-11-18T07:46:55.384Z,8.10
2022-11-18T07:49:22.318Z,8.10
2022-11-18T07:51:49.326Z,8.10
2022-11-18T07:54:19.340Z,8.10
2022-11-18T07:56:46.764Z,8.10
2022-11-18T07:59:13.704Z,8.10
2022-11-18T08:01:40.839Z,8.10
2022-11-18T08:04:10.783Z,8.10
2022-11-18T08:06:38.576Z,8.20
2022-11-18T08:09:06.984Z,8.20
2022-11-18T08:11:34.395Z,8.20
2022-11-18T08:14:01.558Z,8.20
2022-11-18T08:16:28.759Z,8.20
2022-11-18T08:18:55.748Z,8.20
2022-11-18T08:21:23.326Z,8.20
2022-11-18T08:23:52.086Z,8.20
2022-11-18T08:26:19.522Z,8.20
2022-11-18T08:28:47.033Z,8.30
2022-11-18T08:31:17.489Z,8.20
2022-11-18T08:33:44.870Z,8.30
2022-11-18T08:36:19.268Z,8.30
2022-11-18T08:38:46.413Z,8.30
2022-11-18T08:41:17.091Z,8.30
2022-11-18T08:43:44.663Z,8.30
2022-11-18T08:46:11.672Z,8.30
2022-11-18T08:48:38.655Z,8.40
2022-11-18T08:51:05.774Z,8.30
2022-11-18T08:53:33.152Z,8.40
2022-11-18T08:56:01.162Z,8.30
2022-11-18T08:58:28.553Z,8.30
2022-11-18T09:00:55.783Z,8.30
2022-11-18T09:03:23.660Z,8.40
2022-11-18T09:05:50.893Z,8.40
2022-11-18T09:08:17.909Z,8.40
2022-11-18T09:10:44.844Z,8.40
2022-11-18T09:13:40.443Z,8.50
2022-11-18T09:16:00.592Z,8.40
2022-11-18T09:18:27.757Z,8.40
2022-11-18T09:21:03.447Z,8.40
2022-11-18T09:23:32.612Z,8.40
2022-11-18T09:26:00.321Z,8.40
2022-11-18T09:28:27.635Z,8.30
2022-11-18T09:30:55.884Z,8.30
2022-11-18T09:33:23.462Z,8.40
2022-11-18T09:35:50.614Z,8.40
2022-11-18T09:38:17.808Z,8.40
2022-11-18T09:41:09.699Z,8.40
2022-11-18T09:44:13.554Z,8.40
2022-11-18T09:46:57.432Z,8.40
2022-11-18T09:49:40.129Z,8.40
2022-11-18T09:52:16.058Z,8.30
2022-11-18T09:54:43.132Z,8.30
2022-11-18T09:57:22.951Z,8.30
2022-11-18T09:59:50.028Z,8.30
2022-11-18T10:02:23.204Z,8.30
2022-11-18T10:04:50.275Z,8.30
2022-11-18T10:07:22.839Z,8.30
2022-11-18T10:09:54.689Z,8.30
2022-11-18T10:12:44.989Z,8.30
2022-11-18T10:15:24.249Z,8.30
2022-11-18T10:18:44.874Z,8.30
2022-11-18T10:21:46.498Z,8.30
2022-11-18T10:24:29.910Z,8.30
2022-11-18T10:26:59.319Z,8.30
2022-11-18T10:29:27.238Z,8.30
2022-11-18T10:32:08.787Z,8.30
2022-11-18T10:34:46.143Z,8.30
2022-11-18T10:37:39.006Z,8.30
2022-11-18T10:40:27.261Z,8.30
2022-11-18T10:42:54.471Z,8.30
2022-11-18T10:45:25.107Z,8.30
2022-11-18T10:48:17.555Z,8.30
2022-11-18T10:50:51.925Z,8.40
2022-11-18T10:53:31.319Z,8.40
2022-11-18T10:56:11.445Z,8.50
2022-11-18T10:58:48.823Z,8.50
2022-11-18T11:01:26.841Z,8.50
2022-11-18T11:04:01.431Z,8.40
2022-11-18T11:06:31.439Z,8.40
2022-11-18T11:09:01.776Z,8.40
2022-11-18T11:11:32.405Z,8.40
2022-11-18T11:14:33.864Z,8.40
2022-11-18T11:17:09.561Z,8.40
2022-11-18T11:20:01.590Z,8.40
2022-11-18T11:22:29.338Z,8.40
2022-11-18T11:24:56.598Z,8.40
2022-11-18T11:30:43.771Z,8.40
2022-11-18T11:33:54.360Z,8.40
2022-11-18T11:36:41.773Z,8.40
2022-11-18T11:39:50.493Z,8.40
2022-11-18T11:42:28.175Z,8.40
2022-11-18T11:45:19.995Z,8.40
2022-11-18T11:48:04.185Z,8.40
2022-11-18T11:51:28.209Z,8.30
2022-11-18T11:54:32.650Z,8.30
2022-11-18T11:57:20.935Z,8.30
2022-11-18T12:00:02.417Z,8.30
2022-11-18T12:02:42.276Z,8.30
2022-11-18T12:05:24.312Z,8.30
2022-11-18T12:07:56.509Z,8.30
2022-11-18T12:10:50.205Z,8.30
2022-11-18T12:13:55.042Z,8.30
2022-11-18T12:16:40.789Z,8.30
2022-11-18T12:19:13.195Z,8.30
2022-11-18T12:21:45.657Z,8.30
2022-11-18T12:24:31.027Z,8.30
2022-11-18T12:27:03.910Z,8.30
2022-11-18T12:29:39.816Z,8.30
2022-11-18T12:32:45.458Z,8.30
2022-11-18T12:35:12.382Z,8.30
2022-11-18T12:37:51.599Z,8.30
2022-11-18T12:40:42.460Z,8.30
2022-11-18T12:43:47.144Z,8.30
2022-11-18T12:46:44.424Z,8.30
2022-11-18T12:49:24.610Z,8.30
2022-11-18T12:52:00.753Z,8.30
2022-11-18T12:54:49.364Z,8.40
2022-11-18T12:57:29.109Z,8.30
2022-11-18T12:59:56.516Z,8.30
2022-11-18T13:02:30.544Z,8.30
2022-11-18T13:05:33.631Z,8.30
2022-11-18T13:08:13.583Z,8.30
2022-11-18T13:11:18.051Z,8.30
2022-11-18T13:13:46.033Z,8.30
2022-11-18T13:16:43.138Z,8.40
2022-11-18T13:19:20.826Z,8.30
2022-11-18T13:22:15.864Z,8.30
2022-11-18T13:24:50.967Z,8.40
2022-11-18T13:27:35.414Z,8.30
2022-11-18T13:30:14.912Z,8.30
2022-11-18T13:32:47.711Z,8.30
2022-11-18T13:35:27.338Z,8.40
2022-11-18T13:38:01.998Z,8.40
2022-11-18T13:41:04.035Z,8.40
2022-11-18T13:43:32.387Z,8.40
2022-11-18T13:46:09.566Z,8.40
2022-11-18T13:48:40.737Z,8.30
2022-11-18T13:51:07.857Z,8.30
2022-11-18T13:53:38.436Z,8.30
2022-11-18T13:56:18.988Z,8.30
2022-11-18T13:59:16.381Z,8.30
2022-11-18T14:01:45.078Z,8.30
2022-11-18T14:04:31.878Z,8.30
2022-11-18T14:07:26.307Z,8.30
2022-11-18T14:09:58.734Z,8.30
2022-11-18T14:12:32.643Z,8.30
2022-11-18T14:15:21.599Z,8.30
2022-11-18T14:17:59.537Z,8.30
2022-11-18T14:20:28.276Z,8.30
2022-11-18T14:23:00.433Z,8.40
2022-11-18T14:25:31.527Z,8.30
2022-11-18T14:28:19.078Z,8.40
2022-11-18T14:30:59.469Z,8.40
2022-11-18T14:33:28.029Z,8.40
2022-11-18T14:36:01.093Z,8.40
2022-11-18T14:41:47.785Z,8.40
2022-11-18T14:44:15.713Z,8.50
2022-11-18T14:46:53.438Z,8.40
2022-11-18T14:49:23.156Z,8.40
2022-11-18T14:51:52.024Z,8.50
2022-11-18T14:54:25.788Z,8.50
2022-11-18T14:56:58.624Z,8.50
2022-11-18T14:59:25.841Z,8.50
2022-11-18T15:01:52.861Z,8.50
2022-11-18T15:04:22.071Z,8.40
2022-11-18T15:06:49.526Z,8.40
2022-11-18T15:09:16.703Z,8.40
2022-11-18T15:11:44.834Z,8.40
2022-11-18T15:14:11.783Z,8.50
2022-11-18T15:16:39.312Z,8.50
2022-11-18T15:19:07.363Z,8.40
2022-11-18T15:21:34.497Z,8.40
2022-11-18T15:24:01.407Z,8.40
2022-11-18T15:26:34.163Z,8.40
2022-11-18T15:29:01.429Z,8.40
2022-11-18T15:31:28.329Z,8.40
2022-11-18T15:33:55.372Z,8.50
2022-11-18T15:36:25.298Z,8.40
2022-11-18T15:38:53.498Z,8.40
2022-11-18T15:41:22.324Z,8.40
2022-11-18T15:43:50.399Z,8.50
2022-11-18T15:46:21.496Z,8.50
2022-11-18T15:48:51.574Z,8.40
2022-11-18T15:51:18.758Z,8.50
2022-11-18T15:53:45.791Z,8.50
2022-11-18T15:56:25.686Z,8.40
2022-11-18T15:58:57.254Z,8.40
2022-11-18T16:01:26.008Z,8.40
2022-11-18T16:03:53.184Z,8.40
2022-11-18T16:06:20.366Z,8.40
2022-11-18T16:08:47.392Z,8.40
2022-11-18T16:11:35.485Z,8.40
2022-11-18T16:14:03.042Z,8.40
2022-11-18T16:16:30.296Z,8.30
2022-11-18T16:19:02.444Z,8.30
2022-11-18T16:21:31.852Z,8.30
2022-11-18T16:24:01.140Z,8.30
2022-11-18T16:26:30.949Z,8.30
2022-11-18T16:28:58.730Z,8.30
2022-11-18T16:31:41.838Z,8.30
2022-11-18T16:34:17.265Z,8.30
2022-11-18T16:36:49.731Z,8.30
2022-11-18T16:39:19.791Z,8.30
2022-11-18T16:41:47.034Z,8.30
2022-11-18T16:44:15.780Z,8.30
2022-11-18T16:46:47.120Z,8.30
2022-11-18T16:49:16.031Z,8.30
2022-11-18T16:51:45.737Z,8.30
2022-11-18T16:54:23.406Z,8.30
2022-11-18T16:56:52.260Z,8.30
2022-11-18T16:59:21.882Z,8.40
2022-11-18T17:01:53.016Z,8.40
2022-11-18T17:04:20.997Z,8.30
2022-11-18T17:06:48.338Z,8.30
2022-11-18T17:09:18.943Z,8.40
2022-11-18T17:11:46.518Z,8.40
2022-11-18T17:14:14.013Z,8.40
2022-11-18T17:16:41.771Z,8.40
2022-11-18T17:19:13.966Z,8.40
2022-11-18T17:21:41.368Z,8.40
2022-11-18T17:24:09.052Z,8.40
2022-11-18T17:26:36.031Z,8.40
2022-11-18T17:29:02.921Z,8.40
2022-11-18T17:31:29.816Z,8.40
2022-11-18T17:33:57.007Z,8.40
2022-11-18T17:36:26.147Z,8.40
2022-11-18T17:38:55.687Z,8.40
2022-11-18T17:41:44.122Z,8.40
2022-11-18T17:44:13.654Z,8.50
2022-11-18T17:46:41.200Z,8.50
2022-11-18T17:49:13.868Z,8.40
2022-11-18T17:51:41.309Z,8.40
2022-11-18T17:54:08.987Z,8.40
2022-11-18T17:56:36.382Z,8.40
2022-11-18T17:59:03.508Z,8.50
2022-11-18T18:01:30.781Z,8.50
2022-11-18T18:03:58.008Z,8.50
2022-11-18T18:06:25.387Z,8.40
2022-11-18T18:08:56.686Z,8.50
2022-11-18T18:11:24.243Z,8.50
2022-11-18T18:14:09.930Z,8.50
2022-11-18T18:16:37.424Z,8.50
2022-11-18T18:19:06.349Z,8.50
2022-11-18T18:21:33.613Z,8.40
2022-11-18T18:24:00.572Z,8.40
2022-11-18T18:26:31.462Z,8.40
2022-11-18T18:28:59.939Z,8.40
2022-11-18T18:31:27.748Z,8.40
2022-11-18T18:33:55.181Z,8.50
2022-11-18T18:36:25.026Z,8.40
2022-11-18T18:38:52.595Z,8.50
2022-11-18T18:41:22.105Z,8.40
2022-11-18T18:43:50.139Z,8.50
2022-11-18T18:46:31.187Z,8.40
2022-11-18T18:49:12.824Z,8.40
2022-11-18T18:51:50.689Z,8.40
2022-11-18T18:54:19.604Z,8.40
2022-11-18T18:56:46.905Z,8.40
2022-11-18T18:59:13.936Z,8.40
2022-11-18T19:01:40.994Z,8.40
2022-11-18T19:04:11.312Z,8.40
2022-11-18T19:09:26.872Z,8.50
2022-11-18T19:12:13.125Z,8.50
2022-11-18T19:14:40.375Z,8.50
2022-11-18T19:17:11.317Z,8.40
2022-11-18T19:20:09.628Z,8.50
2022-11-18T19:22:36.810Z,8.50
2022-11-18T19:25:03.897Z,8.60
2022-11-18T19:27:30.965Z,8.60
2022-11-18T19:29:58.454Z,8.60
2022-11-18T19:32:25.477Z,8.60
2022-11-18T19:34:52.408Z,8.50
2022-11-18T19:37:19.361Z,8.60
2022-11-18T19:39:46.313Z,8.60
2022-11-18T19:42:13.363Z,8.60
2022-11-18T19:44:40.315Z,8.50
2022-11-18T19:47:07.344Z,8.60
2022-11-18T19:49:34.249Z,8.60
2022-11-18T19:52:01.202Z,8.60
2022-11-18T19:54:28.077Z,8.70
2022-11-18T19:56:54.973Z,8.70
2022-11-18T19:59:21.979Z,8.70
2022-11-18T20:01:49.032Z,8.70
2022-11-18T20:04:16.070Z,8.70
2022-11-18T20:06:42.978Z,8.70
2022-11-18T20:09:11.659Z,8.80
2022-11-18T20:11:38.612Z,8.70
2022-11-18T20:14:07.027Z,8.70
2022-11-18T20:16:36.209Z,8.70
2022-11-18T20:19:10.328Z,8.70
2022-11-18T20:21:39.302Z,8.70
2022-11-18T20:24:07.966Z,8.80
2022-11-18T20:26:39.648Z,8.70
2022-11-18T20:29:07.956Z,8.70
2022-11-18T20:31:36.500Z,8.70
2022-11-18T20:34:04.753Z,8.80
2022-11-18T20:36:36.431Z,8.80
2022-11-18T20:39:13.511Z,8.70
2022-11-18T20:41:40.511Z,8.70
2022-11-18T20:44:07.967Z,8.70
2022-11-18T20:46:35.003Z,8.70
2022-11-18T20:49:02.007Z,8.70
2022-11-18T20:51:29.516Z,8.70
2022-11-18T20:53:57.370Z,8.70
2022-11-18T20:56:26.701Z,8.60
2022-11-18T20:58:54.276Z,8.60
2022-11-18T21:01:24.270Z,8.60
2022-11-18T21:03:54.007Z,8.50
2022-11-18T21:06:22.872Z,8.50
2022-11-18T21:08:54.324Z,8.50
2022-11-18T21:11:21.203Z,8.40
2022-11-18T21:14:07.047Z,8.40
2022-11-18T21:16:34.058Z,8.40
2022-11-18T21:19:00.958Z,8.40
2022-11-18T21:21:46.180Z,8.40
2022-11-18T21:24:15.299Z,8.40
2022-11-18T21:26:42.966Z,8.50
2022-11-18T21:29:12.035Z,8.40
2022-11-18T21:31:39.270Z,8.50
2022-11-18T21:34:07.053Z,8.40
2022-11-18T21:36:34.454Z,8.50
2022-11-18T21:39:02.179Z,8.50
2022-11-18T21:41:29.822Z,8.50
2022-11-18T21:44:05.953Z,8.50
2022-11-18T21:46:34.897Z,8.50
2022-11-18T21:49:02.622Z,8.50
2022-11-18T21:51:31.594Z,8.60
2022-11-18T21:53:59.663Z,8.60
2022-11-18T21:56:31.497Z,8.60
2022-11-18T21:59:00.680Z,8.60
2022-11-18T22:01:33.315Z,8.60
2022-11-18T22:04:02.083Z,8.70
2022-11-18T22:06:31.670Z,8.60
2022-11-18T22:08:58.957Z,8.60
2022-11-18T22:11:26.096Z,8.60
2022-11-18T22:13:53.541Z,8.60
2022-11-18T22:16:22.833Z,8.60
2022-11-18T22:18:56.439Z,8.60
2022-11-18T22:21:26.549Z,8.60
2022-11-18T22:24:00.767Z,8.70
2022-11-18T22:26:28.691Z,8.70
2022-11-18T22:28:58.079Z,8.60
2022-11-18T22:31:27.066Z,8.60
2022-11-18T22:33:55.681Z,8.60
2022-11-18T22:36:24.184Z,8.50
2022-11-18T22:38:51.246Z,8.50
2022-11-18T22:41:49.897Z,8.50
2022-11-18T22:44:17.941Z,8.50
2022-11-18T22:46:46.005Z,8.50
2022-11-18T22:49:13.126Z,8.40
2022-11-18T22:51:40.903Z,8.50
2022-11-18T22:54:38.301Z,8.40
2022-11-18T22:56:55.866Z,8.40
2022-11-18T22:59:23.334Z,8.40
2022-11-18T23:01:53.446Z,8.40
2022-11-18T23:04:20.553Z,8.40
2022-11-18T23:06:49.240Z,8.30
2022-11-18T23:09:16.389Z,8.30
2022-11-18T23:12:02.259Z,8.40
2022-11-18T23:14:29.135Z,8.30
2022-11-18T23:16:56.140Z,8.30
2022-11-18T23:19:23.280Z,8.30
2022-11-18T23:21:50.546Z,8.30
2022-11-18T23:24:19.015Z,8.30
2022-11-18T23:26:46.321Z,8.30
2022-11-18T23:29:14.020Z,8.20
2022-11-18T23:31:45.185Z,8.30
2022-11-18T23:34:14.868Z,8.20
2022-11-18T23:36:42.503Z,8.20
2022-11-18T23:39:09.567Z,8.10
2022-11-18T23:41:36.968Z,8.20
2022-11-18T23:44:04.377Z,8.10
2022-11-18T23:46:31.728Z,8.20
2022-11-18T23:48:58.626Z,8.10
2022-11-18T23:51:26.191Z,8.10
2022-11-18T23:53:55.579Z,8.10
2022-11-18T23:56:25.458Z,8.10
2022-11-18T23:58:53.925Z,8.10
